METAR Data
IDs: Format: Raw Decoded Include TAF

Data at: 1333 UTC 22 Apr 2021

KFHB 221315Z AUTO 05016KT 10SM CLR 15/05 A3018 RMK AO2 T01490050
KFHB 221255Z AUTO 01007KT 10SM CLR 13/05 A3018 RMK AO2 T01310051
KFHB 221235Z AUTO 35008KT 10SM CLR 12/04 A3018 RMK AO2 T01220043
KFHB 221215Z AUTO 36010G15KT 10SM CLR 12/04 A3017 RMK AO2 T01170036
KFHB 221155Z AUTO 35009KT 10SM CLR 12/04 A3017 RMK AO2 T01160037 10160 20107
KFHB 221135Z AUTO 36010G17KT 10SM CLR 11/02 A3016 RMK AO2 T01120024
KFHB 221115Z AUTO 36010KT 10SM CLR 11/01 A3015 RMK AO2 T01100012
KFHB 221055Z AUTO 36008KT 10SM CLR 11/01 A3014 RMK AO2 T01070012
KFHB 221035Z AUTO 36009KT 10SM CLR 11/01 A3013 RMK AO2 T01080006
KFHB 221015Z AUTO 36010KT 10SM CLR 11/00 A3012 RMK AO2 T01110002
KFHB 220955Z AUTO 01011G17KT 10SM CLR 11/00 A3012 RMK AO2 T01140000
KFHB 220935Z AUTO 36013G18KT 10SM CLR 12/00 A3011 RMK AO2 T01160004
KFHB 220915Z AUTO 01013G17KT 320V030 10SM CLR 12/01 A3010 RMK AO2 T01170008
KFHB 220855Z AUTO 35011G17KT 10SM CLR 12/00 A3010 RMK AO2 T01200002
KFHB 220835Z AUTO 35011G15KT 10SM CLR 12/00 A3009 RMK AO2 T01230002
KFHB 220815Z AUTO 35012G19KT 10SM CLR 13/00 A3008 RMK AO2 T01251004
KFHB 220755Z AUTO 34014G18KT 10SM CLR 13/M01 A3008 RMK AO2 T01281008
KFHB 220735Z AUTO 34015G21KT 10SM CLR 13/M01 A3008 RMK AO2 T01341012
KFHB 220710Z AUTO 34011G19KT 10SM CLR 14/01 A3007 RMK AO2 T01430014
KFHB 220655Z AUTO 35014KT 10SM CLR 15/01 A3007 RMK AO2 T01470014
KFHB 220635Z AUTO 34012G16KT 10SM CLR 15/02 A3006 RMK AO2 T01520016
KFHB 220615Z AUTO 34014G21KT 10SM CLR 16/01 A3006 RMK AO2 T01590011
KFHB 220555Z AUTO 34009KT 10SM CLR 16/03 A3005 RMK AO2 T01590034 10246 20159
KFHB 220535Z AUTO 34009KT 10SM CLR 17/03 A3005 RMK AO2 T01660025
KFHB 220515Z AUTO 34014G19KT 10SM CLR 17/03 A3005 RMK AO2 T01730033
KFHB 220455Z AUTO 34013G17KT 10SM CLR 18/05 A3004 RMK AO2 T01760051
KFHB 220435Z AUTO 33009KT 10SM CLR 18/07 A3003 RMK AO2 T01790065
KFHB 220415Z AUTO 33007KT 10SM CLR 19/08 A3003 RMK AO2 T01850079
KFHB 220355Z AUTO 33010KT 10SM CLR 19/09 A3002 RMK AO2 T01920087
KFHB 220335Z AUTO 32010KT 10SM CLR 20/09 A3001 RMK AO2 T01970087
KFHB 220315Z AUTO 32008KT 10SM CLR 20/09 A3001 RMK AO2 T01960095
KFHB 220255Z AUTO 32009KT 10SM CLR 20/09 A3001 RMK AO2 T02050092
KFHB 220235Z AUTO 31008KT 10SM CLR 20/10 A3000 RMK AO2 T02010096
KFHB 220215Z AUTO 31007KT 10SM CLR 20/10 A2999 RMK AO2 T02020096
KFHB 220155Z AUTO 29007KT 10SM CLR 21/09 A2998 RMK AO2 T02080092
KFHB 220135Z AUTO 30008KT 10SM CLR 21/09 A2997 RMK AO2 T02110092
KFHB 220115Z AUTO 30006KT 10SM CLR 21/09 A2996 RMK AO2 T02140094
KFHB 220055Z AUTO 27007KT 10SM CLR 22/09 A2995 RMK AO2 T02240085
KFHB 220035Z AUTO 27008KT 10SM CLR 23/08 A2994 RMK AO2 T02330081
KFHB 220015Z AUTO 27009KT 10SM CLR 24/08 A2993 RMK AO2 T02400078
KFHB 212355Z AUTO 28009KT 10SM CLR 25/08 A2992 RMK AO2 T02470078 10290 20246 402900168
KFHB 212335Z AUTO 27010KT 10SM CLR 26/08 A2992 RMK AO2 T02570076
KFHB 212315Z AUTO 27016KT 10SM CLR 26/07 A2991 RMK AO2 T02640073
KFHB 212255Z AUTO 28010G16KT 10SM CLR 27/09 A2991 RMK AO2 T02690092
KFHB 212235Z AUTO 27011KT 10SM CLR 27/09 A2991 RMK AO2 T02740090
KFHB 212215Z AUTO 28015KT 10SM CLR 28/08 A2990 RMK AO2 T02770083
KFHB 212155Z AUTO 26015G20KT 10SM CLR 28/09 A2990 RMK AO2 T02820086
KFHB 212135Z AUTO 27016G22KT 10SM CLR 28/08 A2990 RMK AO2 T02830083
KFHB 212115Z AUTO 29016G19KT 10SM CLR 29/09 A2989 RMK AO2 T02860090
KFHB 212055Z AUTO 26013G20KT 10SM CLR 29/09 A2989 RMK AO2 T02870094
KFHB 212035Z AUTO 27015KT 10SM CLR 29/09 A2989 RMK AO2 T02870091
KFHB 212015Z AUTO 27015G20KT 10SM CLR 29/09 A2990 RMK AO2 T02860093
KFHB 211955Z AUTO 27013G17KT 10SM SCT075 28/11 A2990 RMK AO2 T02840110
KFHB 211935Z AUTO 29017KT 10SM CLR 29/10 A2991 RMK AO2 T02860105
KFHB 211915Z AUTO 29011G16KT 10SM CLR 28/11 A2992 RMK AO2 T02830111
KFHB 211855Z AUTO 30013G21KT 10SM CLR 28/12 A2993 RMK AO2 T02820117
KFHB 211835Z AUTO 25012KT 10SM CLR 28/11 A2994 RMK AO2 T02790107
KFHB 211815Z AUTO 29015KT 10SM CLR 28/11 A2994 RMK AO2 T02780110
KFHB 211755Z AUTO 29012G19KT 10SM CLR 28/10 A2994 RMK AO2 T02770104 10280 20179
KFHB 211735Z AUTO 28010G17KT 170V310 10SM CLR 28/11 A2995 RMK AO2 T02750114
KFHB 211715Z AUTO 29016G21KT 10SM CLR 27/10 A2995 RMK AO2 T02710103
KFHB 211655Z AUTO 29015G20KT 10SM CLR 27/11 A2996 RMK AO2 T02720111
KFHB 211635Z AUTO 30011KT 10SM CLR 27/11 A2996 RMK AO2 T02670113
KFHB 211615Z AUTO 28010KT 10SM CLR 26/12 A2997 RMK AO2 T02620117
KFHB 211555Z AUTO 30012G17KT 10SM CLR 26/12 A2998 RMK AO2 T02580116
KFHB 211535Z AUTO 31012KT 10SM CLR 26/12 A2998 RMK AO2 T02570119
KFHB 211515Z AUTO 30011KT 10SM CLR 25/12 A2998 RMK AO2 T02500117
KFHB 211455Z AUTO 32008KT 10SM CLR 25/13 A2998 RMK AO2 T02480129
KFHB 211435Z AUTO 29010KT 10SM CLR 24/13 A2999 RMK AO2 T02420129
KFHB 211415Z AUTO 29008KT 10SM CLR 23/14 A2998 RMK AO2 T02350137
KFHB 211355Z AUTO 30007KT 10SM CLR 23/14 A2999 RMK AO2 T02260145
KFHB 211335Z AUTO 29008KT 10SM CLR 22/16 A2999 RMK AO2 T02180155
KFHB 211315Z AUTO 29007KT 10SM CLR 21/16 A2999 RMK AO2 T02110158
KFHB 211255Z AUTO 28005KT 10SM CLR 20/16 A2998 RMK AO2 T02020157
KFHB 211235Z AUTO 29004KT 10SM CLR 19/17 A2997 RMK AO2 T01930171
KFHB 211215Z AUTO 27004KT 10SM CLR 18/18 A2997 RMK AO2 T01850181
KFHB 211155Z AUTO 25004KT 10SM CLR 18/ A2997 RMK AO2 T0178//// 10179 20169
KFHB 211135Z AUTO 25004KT 10SM CLR 17/ A2997 RMK AO2 T0173////
KFHB 211115Z AUTO 26006KT 10SM CLR 17/ A2997 RMK AO2 T0172////
KFHB 211055Z AUTO 26005KT 10SM CLR 17/ A2996 RMK AO2 T0175////
KFHB 211035Z AUTO 25005KT 10SM SCT095 17/ A2996 RMK AO2 T0174////
KFHB 211015Z AUTO 23005KT 10SM SCT095 17/ A2995 RMK AO2 T0173////
KFHB 210955Z AUTO 22005KT 10SM CLR 17/ A2995 RMK AO2 T0173////
KFHB 210935Z AUTO 24005KT 10SM CLR 18/ A2994 RMK AO2 T0177////
KFHB 210915Z AUTO 21005KT 10SM CLR 17/ A2994 RMK AO2 T0175////
KFHB 210855Z AUTO 21005KT 10SM CLR 17/ A2993 RMK AO2 T0173////
KFHB 210835Z AUTO 23006KT 10SM CLR 17/ A2993 RMK AO2 T0170////
KFHB 210815Z AUTO 22004KT 10SM CLR 17/ A2993 RMK AO2 T0173////
KFHB 210755Z AUTO 22004KT 10SM CLR 17/ A2993 RMK AO2 T0174////
KFHB 210735Z AUTO 26003KT 10SM CLR 18/ A2993 RMK AO2 T0177////
KFHB 210715Z AUTO 25004KT 10SM CLR 17/ A2993 RMK AO2 T0175////
KFHB 210655Z AUTO 25005KT 10SM CLR 18/ A2994 RMK AO2 T0176////
KFHB 210635Z AUTO 25006KT 10SM CLR 18/ A2994 RMK AO2 T0176////
KFHB 210615Z AUTO 25005KT 10SM CLR 18/ A2995 RMK AO2 T0179////
KFHB 210555Z AUTO 24005KT 10SM SCT120 18/ A2996 RMK AO2 T0179//// 10203 20168
KFHB 210535Z AUTO 26003KT 10SM OVC120 18/ A2995 RMK AO2 T0177////
KFHB 210515Z AUTO 24003KT 10SM OVC120 17/ A2995 RMK AO2 T0172////
KFHB 210455Z AUTO 00000KT 10SM BKN120 18/ A2995 RMK AO2 T0175////
KFHB 210435Z AUTO 00000KT 10SM SCT120 18/ A2995 RMK AO2 T0178////
KFHB 210415Z AUTO 00000KT 10SM CLR 18/ A2995 RMK AO2 T0175////
KFHB 210355Z AUTO 18003KT 10SM CLR 18/ A2995 RMK AO2 T0178////
KFHB 210335Z AUTO 00000KT 10SM CLR 18/ A2996 RMK AO2 T0181////
KFHB 210315Z AUTO 00000KT 10SM CLR 18/ A2995 RMK AO2 T0181////
KFHB 210255Z AUTO 00000KT 10SM CLR 19/ A2996 RMK AO2 T0187////
KFHB 210235Z AUTO 17004KT 10SM CLR 19/ A2995 RMK AO2 T0187////
KFHB 210215Z AUTO 17004KT 10SM CLR 18/ A2996 RMK AO2 T0184////
KFHB 210155Z AUTO 17004KT 10SM CLR 19/ A2995 RMK AO2 T0191////
KFHB 210135Z AUTO 00000KT 10SM CLR 19/ A2996 RMK AO2 T0189////